Aeroporto :
LOGIN :

Iscrizione | Disclaimer

   EN    FR    IT 

 










Sommario :    VFR   VFR Marginale   IFR   IFR Intensivo   IFR Molto Intensivo
Visibilità : 
Base nubi : 
>= 8 km
>= 3000ft
5 / 8 km
1000 / 3000 ft
1500m / 5 km
500 / 1000 ft
800 / 1500m
200 / 500 ft
< 800m
< 200 ft
Simboli :   Temporali  Nebbia  Neve Forte  Precipitazioni Forti  Vento > 20 kt
SIGMETs :   Varie  Temporali  Ghiacco  Turbolenza  Onda orograficha  Ceneri Vulcaniche






- Altitudine del aeroporto : 162 ft
- Codice IATA : BOD


LFBD - Bordeaux / Merignac

ULTIMO METAR :
  • 202130Z AUTO 23007KT 9999 BKN023 BKN043 OVC054 11/09 Q1029 NOSIG

METARs OBSOLETI :
  • 202100Z AUTO 23006KT 9999 OVC024 11/09 Q1029 TEMPO 4000 -RA BKN014
  • 202030Z AUTO 23006KT 9999 BKN024 10/08 Q1028 TEMPO 4000 -RA BKN014
  • 202000Z AUTO 23006KT 9999 FEW024 BKN052 10/08 Q1028 TEMPO 4000 -RA BKN014
  • 201930Z AUTO 24007KT 9999 FEW031 BKN054 11/08 Q1028 TEMPO 4000 -RA BKN014
  • 201900Z AUTO 25006KT 9999 SCT033 BKN044 OVC058 11/08 Q1028 TEMPO 4000 -RA BKN014
  • 201830Z AUTO 25005KT 9999 SCT047 BKN060 11/07 Q1027 TEMPO 4000 -RA BKN014

TAF TAF LFBD
Valido dal 20 a 18 ore il 22 a 00 ore UTC


201700Z 2018/2124 27010KT 9999 BKN030 TX14/2114Z TN04/2106Z
TEMPO 2019/2022 4000 -RA BKN014
BECMG 2021/2023 36007KT
PROB30 2104/2109 3000 BR SCT005
ATIS : +33 5 57 92 81 04



MetMap, La meteo Aeronautica in un colpo d'occhio ! - Copyright ORBIFLY Dicembre 2007 - Disclaimer

ORBIFLY MET'MAP TEAM :

Programmazione e sviluppo : Alexandra Zaïnal
Concezione : Baudouin d'Aumeries
Aiuto per la programmazione : Marc-Olivier Méhu
Supporto tecnico e logistico : Manuel Goepfert
Aiuto per la traduzione : Arnaldo La Scala

Contatto : metmap@orbifly.com




FONTI E CREDITI :

   NOAA